createdAt,value
2022-07-26T00:00:17.230Z,92236.94
2022-07-26T00:02:48.141Z,92222.69
2022-07-26T00:05:15.938Z,92226.25
2022-07-26T00:07:43.217Z,92233.78
2022-07-26T00:10:10.480Z,92226.59
2022-07-26T00:12:37.720Z,92234.00
2022-07-26T00:15:06.984Z,92235.03
2022-07-26T00:17:34.216Z,92232.44
2022-07-26T00:20:01.453Z,92232.69
2022-07-26T00:22:28.734Z,92231.25
2022-07-26T00:24:55.972Z,92233.44
2022-07-26T00:27:23.226Z,92236.03
2022-07-26T00:29:52.953Z,92236.28
2022-07-26T00:32:20.194Z,92234.00
2022-07-26T00:34:47.457Z,92235.69
2022-07-26T00:37:19.994Z,92225.38
2022-07-26T00:39:47.673Z,92229.47
2022-07-26T00:42:14.948Z,92227.16
2022-07-26T00:44:42.198Z,92223.94
2022-07-26T00:47:09.466Z,92228.84
2022-07-26T00:49:36.732Z,92231.88
2022-07-26T00:52:03.967Z,92230.69
2022-07-26T00:54:31.236Z,92227.34
2022-07-26T00:56:58.476Z,92224.00
2022-07-26T00:59:25.708Z,92228.72
2022-07-26T01:01:53.196Z,92223.66
2022-07-26T01:04:20.587Z,92219.97
2022-07-26T01:06:47.843Z,92219.16
2022-07-26T01:09:15.115Z,92223.94
2022-07-26T01:11:42.383Z,92221.06
2022-07-26T01:14:10.054Z,92207.72
2022-07-26T01:16:41.196Z,92211.78
2022-07-26T01:19:08.514Z,92208.44
2022-07-26T01:21:35.755Z,92209.56
2022-07-26T01:24:03.017Z,92214.16
2022-07-26T01:26:30.258Z,92211.75
2022-07-26T01:28:57.624Z,92213.22
2022-07-26T01:31:24.906Z,92210.59
2022-07-26T01:33:52.170Z,92205.59
2022-07-26T01:36:21.427Z,92205.91
2022-07-26T01:38:48.662Z,92207.91
2022-07-26T01:41:15.908Z,92201.97
2022-07-26T01:43:43.274Z,92209.31
2022-07-26T01:46:10.602Z,92217.28
2022-07-26T01:48:37.934Z,92211.31
2022-07-26T01:51:05.280Z,92213.41
2022-07-26T01:53:32.512Z,92214.00
2022-07-26T01:55:59.760Z,92225.38
2022-07-26T01:58:27.028Z,92215.03
2022-07-26T02:00:54.279Z,92222.13
2022-07-26T02:03:21.568Z,92221.31
2022-07-26T02:05:48.966Z,92232.34
2022-07-26T02:08:16.217Z,92235.25
2022-07-26T02:10:45.849Z,92238.97
2022-07-26T02:13:14.736Z,92242.03
2022-07-26T02:15:42.047Z,92246.66
2022-07-26T02:18:09.295Z,92243.59
2022-07-26T02:20:36.541Z,92237.69
2022-07-26T02:23:03.789Z,92245.66
2022-07-26T02:25:31.029Z,92244.63
2022-07-26T02:27:58.272Z,92244.63
2022-07-26T02:30:25.534Z,92244.81
2022-07-26T02:32:52.787Z,92248.97
2022-07-26T02:35:20.264Z,92248.63
2022-07-26T02:37:47.517Z,92251.38
2022-07-26T02:40:19.026Z,92244.78
2022-07-26T02:42:46.683Z,92248.22
2022-07-26T02:45:14.044Z,92239.41
2022-07-26T02:47:41.292Z,92231.69
2022-07-26T02:50:08.519Z,92229.38
2022-07-26T02:52:35.778Z,92231.69
2022-07-26T02:55:03.017Z,92224.16
2022-07-26T02:57:30.288Z,92221.47
2022-07-26T03:00:12.831Z,92226.03
2022-07-26T03:02:40.149Z,92224.38
2022-07-26T03:05:07.449Z,92230.41
2022-07-26T03:07:34.692Z,92231.34
2022-07-26T03:10:01.955Z,92214.63
2022-07-26T03:12:29.307Z,92216.03
2022-07-26T03:14:56.539Z,92214.66
2022-07-26T03:17:23.814Z,92221.06
2022-07-26T03:19:51.073Z,92220.63
2022-07-26T03:22:18.314Z,92214.06
2022-07-26T03:24:45.551Z,92204.47
2022-07-26T03:27:12.905Z,92203.44
2022-07-26T03:29:40.176Z,92204.69
2022-07-26T03:32:07.438Z,92197.78
2022-07-26T03:34:34.726Z,92202.59
2022-07-26T03:37:01.969Z,92196.91
2022-07-26T03:39:29.224Z,92190.13
2022-07-26T03:41:56.483Z,92194.09
2022-07-26T03:44:23.749Z,92190.13
2022-07-26T03:46:50.984Z,92189.38
2022-07-26T03:49:18.461Z,92187.09
2022-07-26T03:51:45.765Z,92193.09
2022-07-26T03:54:13.106Z,92192.56
2022-07-26T03:56:42.372Z,92203.38
2022-07-26T03:59:09.617Z,92195.22
2022-07-26T04:01:37.009Z,92194.19
2022-07-26T04:04:04.363Z,92191.97
2022-07-26T04:06:32.091Z,92187.88
2022-07-26T04:08:59.354Z,92195.13
2022-07-26T04:11:28.588Z,92194.03
2022-07-26T04:14:16.062Z,92206.19
2022-07-26T04:16:43.962Z,92200.63
2022-07-26T04:19:11.358Z,92199.16
2022-07-26T04:21:38.606Z,92200.84
2022-07-26T04:24:06.017Z,92203.00
2022-07-26T04:26:33.454Z,92210.22
2022-07-26T04:29:00.697Z,92202.03
2022-07-26T04:31:28.026Z,92197.59
2022-07-26T04:34:03.579Z,92196.09
2022-07-26T04:36:30.850Z,92193.53
2022-07-26T04:38:58.090Z,92195.34
2022-07-26T04:41:25.352Z,92193.75
2022-07-26T04:43:52.602Z,92197.34
2022-07-26T04:46:19.916Z,92197.84
2022-07-26T04:48:47.195Z,92194.84
2022-07-26T04:51:14.560Z,92193.41
2022-07-26T04:53:41.798Z,92199.69
2022-07-26T04:56:09.405Z,92191.13
2022-07-26T04:58:38.674Z,92191.50
2022-07-26T05:01:10.289Z,92195.72
2022-07-26T05:03:41.858Z,92192.88
2022-07-26T05:06:09.110Z,92201.56
2022-07-26T05:08:36.366Z,92187.63
2022-07-26T05:11:03.636Z,92191.34
2022-07-26T05:13:31.125Z,92188.72
2022-07-26T05:15:58.425Z,92190.50
2022-07-26T05:18:25.965Z,92196.56
2022-07-26T05:20:53.234Z,92192.19
2022-07-26T05:23:20.633Z,92188.22
2022-07-26T05:25:47.990Z,92183.31
2022-07-26T05:28:15.246Z,92188.44
2022-07-26T05:30:42.527Z,92186.13
2022-07-26T05:33:09.802Z,92181.13
2022-07-26T05:35:39.372Z,92190.00
2022-07-26T05:38:06.629Z,92187.69
2022-07-26T05:40:33.880Z,92184.09
2022-07-26T05:43:01.120Z,92192.44
2022-07-26T05:45:28.448Z,92191.06
2022-07-26T05:47:55.752Z,92191.44
2022-07-26T05:50:23.002Z,92186.38
2022-07-26T05:52:50.366Z,92180.03
2022-07-26T05:55:17.604Z,92178.06
2022-07-26T05:57:44.854Z,92188.97
2022-07-26T06:00:12.129Z,92186.28
2022-07-26T06:02:39.407Z,92182.06
2022-07-26T06:05:06.702Z,92180.47
2022-07-26T06:07:33.970Z,92179.22
2022-07-26T06:10:01.226Z,92182.88
2022-07-26T06:12:28.470Z,92184.34
2022-07-26T06:14:55.759Z,92183.88
2022-07-26T06:17:23.084Z,92182.00
2022-07-26T06:19:50.410Z,92186.81
2022-07-26T06:22:17.674Z,92188.84
2022-07-26T06:24:44.937Z,92191.66
2022-07-26T06:27:12.190Z,92188.47
2022-07-26T06:29:39.456Z,92185.66
2022-07-26T06:32:06.749Z,92190.56
2022-07-26T06:34:34.068Z,92198.28
2022-07-26T06:37:01.327Z,92192.06
2022-07-26T06:39:28.578Z,92186.63
2022-07-26T06:41:55.844Z,92194.69
2022-07-26T06:44:23.115Z,92207.66
2022-07-26T06:46:50.397Z,92202.84
2022-07-26T06:49:22.163Z,92209.25
2022-07-26T06:51:50.049Z,92201.19
2022-07-26T06:54:17.352Z,92204.16
2022-07-26T06:59:11.652Z,92204.88
2022-07-26T07:01:59.709Z,92203.34
2022-07-26T07:04:26.253Z,92209.91
2022-07-26T07:06:53.524Z,92207.63
2022-07-26T07:09:22.431Z,92209.56
2022-07-26T07:11:51.836Z,92204.25
2022-07-26T07:14:26.400Z,92203.06
2022-07-26T07:16:53.711Z,92208.22
2022-07-26T07:19:21.000Z,92201.09
2022-07-26T07:21:48.260Z,92213.09
2022-07-26T07:24:15.503Z,92203.84
2022-07-26T07:26:42.744Z,92217.16
2022-07-26T07:29:10.020Z,92220.88
2022-07-26T07:31:47.819Z,92208.56
2022-07-26T07:34:16.535Z,92202.72
2022-07-26T07:36:45.794Z,92213.31
2022-07-26T07:39:17.572Z,92210.16
2022-07-26T07:41:47.040Z,92213.44
2022-07-26T07:44:19.474Z,92217.09
2022-07-26T07:46:46.780Z,92213.75
2022-07-26T07:49:14.204Z,92207.78
2022-07-26T07:51:41.512Z,92203.38
2022-07-26T07:54:09.105Z,92204.53
2022-07-26T07:56:36.362Z,92205.53
2022-07-26T07:59:03.631Z,92198.81
2022-07-26T08:01:40.304Z,92197.00
2022-07-26T08:04:08.065Z,92198.91
2022-07-26T08:06:35.341Z,92202.59
2022-07-26T08:09:03.753Z,92198.88
2022-07-26T08:11:33.972Z,92194.16
2022-07-26T08:14:01.665Z,92192.72
2022-07-26T08:16:28.993Z,92192.06
2022-07-26T08:18:57.861Z,92193.53
2022-07-26T08:21:27.553Z,92198.00
2022-07-26T08:24:13.849Z,92195.72
2022-07-26T08:26:41.093Z,92197.56
2022-07-26T08:29:08.347Z,92196.63
2022-07-26T08:31:35.644Z,92190.66
2022-07-26T08:34:02.976Z,92194.22
2022-07-26T08:36:32.542Z,92194.56
2022-07-26T08:39:00.125Z,92201.06
2022-07-26T08:41:27.394Z,92193.72
2022-07-26T08:43:54.656Z,92202.03
2022-07-26T08:46:25.354Z,92200.38
2022-07-26T08:48:53.581Z,92200.72
2022-07-26T08:51:21.004Z,92193.41
2022-07-26T08:53:48.342Z,92205.59
2022-07-26T08:56:15.649Z,92203.16
2022-07-26T08:58:42.906Z,92203.00
2022-07-26T09:01:10.203Z,92200.06
2022-07-26T09:03:37.578Z,92199.34
2022-07-26T09:06:04.926Z,92212.56
2022-07-26T09:08:32.169Z,92206.41
2022-07-26T09:10:59.439Z,92200.72
2022-07-26T09:13:26.706Z,92199.22
2022-07-26T09:15:53.981Z,92196.44
2022-07-26T09:18:21.314Z,92195.56
2022-07-26T09:20:48.805Z,92191.34
2022-07-26T09:23:16.132Z,92195.72
2022-07-26T09:25:43.372Z,92193.13
2022-07-26T09:28:10.644Z,92196.00
2022-07-26T09:30:37.909Z,92194.25
2022-07-26T09:33:05.179Z,92192.06
2022-07-26T09:35:50.869Z,92194.81
2022-07-26T09:38:18.742Z,92201.94
2022-07-26T09:40:49.590Z,92202.25
2022-07-26T09:43:22.121Z,92195.25
2022-07-26T09:45:51.943Z,92206.69
2022-07-26T09:48:23.915Z,92200.00
2022-07-26T09:50:51.219Z,92204.22
2022-07-26T09:53:18.512Z,92204.13
2022-07-26T09:55:45.748Z,92206.41
2022-07-26T09:58:12.994Z,92206.78
2022-07-26T10:00:40.256Z,92208.66
2022-07-26T10:03:07.607Z,92209.78
2022-07-26T10:05:34.924Z,92202.00
2022-07-26T10:08:02.180Z,92199.63
2022-07-26T10:10:29.449Z,92212.22
2022-07-26T10:12:56.692Z,92201.56
2022-07-26T10:15:23.951Z,92198.69
2022-07-26T10:17:52.054Z,92200.00
2022-07-26T10:20:24.738Z,92196.66
2022-07-26T10:22:52.309Z,92200.38
2022-07-26T10:25:21.590Z,92199.78
2022-07-26T10:27:48.843Z,92206.53
2022-07-26T10:30:16.192Z,92199.31
2022-07-26T10:32:43.441Z,92202.03
2022-07-26T10:35:10.686Z,92196.84
2022-07-26T10:37:38.047Z,92191.13
2022-07-26T10:40:10.971Z,92198.19
2022-07-26T10:42:38.273Z,92196.84
2022-07-26T10:45:05.528Z,92189.06
2022-07-26T10:47:35.408Z,92180.13
2022-07-26T10:50:02.885Z,92179.78
2022-07-26T10:52:30.131Z,92182.50
2022-07-26T10:54:57.378Z,92189.69
2022-07-26T10:57:24.684Z,92180.50
2022-07-26T10:59:56.446Z,92187.50
2022-07-26T11:02:24.085Z,92184.66
2022-07-26T11:04:51.386Z,92183.00
2022-07-26T11:07:18.633Z,92182.28
2022-07-26T11:09:45.890Z,92180.38
2022-07-26T11:12:13.153Z,92185.03
2022-07-26T11:14:44.977Z,92180.19
2022-07-26T11:17:15.497Z,92179.47
2022-07-26T11:19:42.757Z,92174.06
2022-07-26T11:22:10.002Z,92174.63
2022-07-26T11:24:38.701Z,92169.31
2022-07-26T11:27:05.942Z,92163.25
2022-07-26T11:29:40.647Z,92162.28
2022-07-26T11:32:12.974Z,92146.88
2022-07-26T11:34:44.186Z,92149.28
2022-07-26T11:37:11.449Z,92154.50
2022-07-26T11:39:38.708Z,92144.81
2022-07-26T11:42:05.972Z,92144.47
2022-07-26T11:44:35.229Z,92141.38
2022-07-26T11:47:04.499Z,92153.69
2022-07-26T11:52:24.885Z,92153.34
2022-07-26T11:54:52.941Z,92151.44
2022-07-26T11:57:20.225Z,92150.22
2022-07-26T11:59:47.493Z,92143.78
2022-07-26T12:02:14.754Z,92144.56
2022-07-26T12:04:42.125Z,92141.72
2022-07-26T12:07:09.467Z,92138.78
2022-07-26T12:09:36.714Z,92143.72
2022-07-26T12:12:03.972Z,92147.72
2022-07-26T12:14:31.227Z,92133.47
2022-07-26T12:16:58.525Z,92134.47
2022-07-26T12:19:25.760Z,92138.38
2022-07-26T12:21:53.008Z,92134.78
2022-07-26T12:24:20.281Z,92126.75
2022-07-26T12:26:47.525Z,92131.03
2022-07-26T12:29:14.863Z,92129.59
2022-07-26T12:31:42.334Z,92121.56
2022-07-26T12:34:09.911Z,92128.16
2022-07-26T12:36:37.364Z,92121.00
2022-07-26T12:39:04.780Z,92127.22
2022-07-26T12:41:32.045Z,92115.13
2022-07-26T12:43:59.313Z,92114.63
2022-07-26T12:46:26.648Z,92113.28
2022-07-26T12:48:59.706Z,92109.75
2022-07-26T12:51:27.355Z,92111.63
2022-07-26T12:53:54.629Z,92111.44
2022-07-26T12:56:21.875Z,92103.03
2022-07-26T12:58:49.136Z,92112.91
2022-07-26T13:01:16.487Z,92096.91
2022-07-26T13:03:44.422Z,92103.66
2022-07-26T13:06:11.771Z,92094.63
2022-07-26T13:08:39.007Z,92092.91
2022-07-26T13:11:06.257Z,92099.16
2022-07-26T13:13:33.529Z,92090.97
2022-07-26T13:16:00.769Z,92097.41
2022-07-26T13:18:28.024Z,92097.41
2022-07-26T13:20:55.337Z,92094.72
2022-07-26T13:23:23.738Z,92094.19
2022-07-26T13:25:54.027Z,92087.97
2022-07-26T13:28:21.891Z,92089.47
2022-07-26T13:30:49.202Z,92093.31
2022-07-26T13:33:16.543Z,92087.56
2022-07-26T13:35:43.805Z,92086.22
2022-07-26T13:38:11.088Z,92083.75
2022-07-26T13:40:38.337Z,92087.72
2022-07-26T13:43:05.624Z,92076.97
2022-07-26T13:45:32.896Z,92082.75
2022-07-26T13:48:01.339Z,92079.66
2022-07-26T13:50:28.608Z,92079.94
2022-07-26T13:52:55.892Z,92070.19
2022-07-26T13:55:23.145Z,92072.88
2022-07-26T13:57:56.774Z,92080.59
2022-07-26T14:00:25.299Z,92079.53
2022-07-26T14:02:52.669Z,92077.22
2022-07-26T14:05:21.037Z,92073.06
2022-07-26T14:07:48.317Z,92078.94
2022-07-26T14:10:15.570Z,92083.59
2022-07-26T14:12:42.830Z,92088.34
2022-07-26T14:15:15.139Z,92088.03
2022-07-26T14:17:44.104Z,92084.19
2022-07-26T14:20:11.340Z,92078.34
2022-07-26T14:22:38.605Z,92084.84
2022-07-26T14:25:05.916Z,92074.13
2022-07-26T14:27:33.173Z,92072.44
2022-07-26T14:30:00.445Z,92077.44
2022-07-26T14:32:29.707Z,92079.09
2022-07-26T14:34:56.959Z,92079.59
2022-07-26T14:37:34.525Z,92080.78
2022-07-26T14:40:11.474Z,92073.41
2022-07-26T14:42:38.783Z,92075.28
2022-07-26T14:45:08.033Z,92083.38
2022-07-26T14:47:35.288Z,92076.41
2022-07-26T14:50:06.506Z,92074.81
2022-07-26T14:52:34.687Z,92069.75
2022-07-26T14:55:01.967Z,92065.94
2022-07-26T14:57:29.215Z,92061.69
2022-07-26T14:59:56.462Z,92061.50
2022-07-26T15:02:23.804Z,92063.28
2022-07-26T15:41:17.664Z,92056.03
2022-07-26T15:43:48.819Z,92048.31
2022-07-26T15:46:16.471Z,92038.97
2022-07-26T15:48:43.886Z,92033.47
2022-07-26T15:51:11.282Z,92032.44
2022-07-26T15:53:41.805Z,92033.22
2022-07-26T15:56:11.741Z,92039.75
2022-07-26T15:58:38.981Z,92039.50
2022-07-26T16:01:06.312Z,92043.88
2022-07-26T16:03:33.613Z,92034.47
2022-07-26T16:06:05.743Z,92033.69
2022-07-26T16:08:33.766Z,92040.34
2022-07-26T16:11:01.074Z,92032.06
2022-07-26T16:13:28.315Z,92031.34
2022-07-26T16:15:55.640Z,92035.13
2022-07-26T16:18:22.913Z,92036.25
2022-07-26T16:20:50.192Z,92041.31
2022-07-26T16:23:17.437Z,92034.28
2022-07-26T16:25:47.747Z,92033.25
2022-07-26T16:28:15.035Z,92028.66
2022-07-26T16:30:42.289Z,92032.69
2022-07-26T16:33:09.534Z,92025.78
2022-07-26T16:35:36.847Z,92029.63
2022-07-26T16:38:04.081Z,92027.88
2022-07-26T16:40:31.336Z,92020.81
2022-07-26T16:42:58.632Z,92021.75
2022-07-26T16:45:25.881Z,92026.16
2022-07-26T16:47:56.843Z,92023.97
2022-07-26T16:50:27.884Z,92027.25
2022-07-26T16:52:55.346Z,92024.31
2022-07-26T16:55:22.617Z,92025.91
2022-07-26T16:57:49.861Z,92024.66
2022-07-26T17:00:17.112Z,92031.44
2022-07-26T17:02:44.469Z,92029.06
2022-07-26T17:05:11.708Z,92028.91
2022-07-26T17:07:38.944Z,92033.00
2022-07-26T17:10:06.227Z,92036.97
2022-07-26T17:12:33.474Z,92031.78
2022-07-26T17:15:00.711Z,92040.06
2022-07-26T17:17:28.057Z,92031.03
2022-07-26T17:19:55.424Z,92029.22
2022-07-26T17:22:22.696Z,92035.75
2022-07-26T17:24:49.969Z,92029.56
2022-07-26T17:27:17.211Z,92033.94
2022-07-26T17:29:44.453Z,92037.72
2022-07-26T17:32:11.828Z,92032.25
2022-07-26T17:34:39.070Z,92037.00
2022-07-26T17:37:08.306Z,92037.66
2022-07-26T17:39:53.179Z,92037.28
2022-07-26T17:42:20.883Z,92033.88
2022-07-26T17:44:48.192Z,92035.88
2022-07-26T17:47:27.669Z,92040.75
2022-07-26T17:49:57.257Z,92033.19
2022-07-26T17:52:32.024Z,92044.34
2022-07-26T17:54:59.294Z,92046.28
2022-07-26T17:57:26.575Z,92047.22
2022-07-26T17:59:53.834Z,92041.91
2022-07-26T18:02:21.386Z,92038.28
2022-07-26T18:04:48.715Z,92051.94
2022-07-26T18:07:15.963Z,92041.78
2022-07-26T18:09:43.242Z,92048.13
2022-07-26T18:12:10.510Z,92041.59
2022-07-26T18:14:38.437Z,92043.84
2022-07-26T18:17:05.742Z,92043.63
2022-07-26T18:19:33.102Z,92046.63
2022-07-26T18:22:05.520Z,92041.59
2022-07-26T18:24:33.269Z,92047.91
2022-07-26T18:27:00.555Z,92052.97
2022-07-26T18:29:27.792Z,92049.25
2022-07-26T18:31:55.121Z,92051.69
2022-07-26T18:34:22.460Z,92050.59
2022-07-26T18:36:49.742Z,92045.84
2022-07-26T18:39:16.987Z,92049.00
2022-07-26T18:41:44.236Z,92038.91
2022-07-26T18:44:13.602Z,92040.25
2022-07-26T18:46:40.912Z,92041.91
2022-07-26T18:49:08.335Z,92042.72
2022-07-26T18:51:43.221Z,92049.53
2022-07-26T18:54:10.495Z,92056.72
2022-07-26T18:56:39.226Z,92046.91
2022-07-26T18:59:06.476Z,92044.28
2022-07-26T19:01:33.807Z,92053.59
2022-07-26T19:04:06.172Z,92053.63
2022-07-26T19:06:34.509Z,92046.06
2022-07-26T19:09:01.781Z,92051.69
2022-07-26T19:11:29.049Z,92054.53
2022-07-26T19:13:56.330Z,92053.69
2022-07-26T19:16:23.763Z,92056.06
2022-07-26T19:18:56.875Z,92055.47
2022-07-26T19:21:24.682Z,92064.13
2022-07-26T19:23:51.944Z,92061.22
2022-07-26T19:26:19.180Z,92068.06
2022-07-26T19:28:46.456Z,92062.38
2022-07-26T19:31:13.739Z,92065.41
2022-07-26T19:33:41.035Z,92066.59
2022-07-26T19:36:10.395Z,92069.84
2022-07-26T19:38:37.679Z,92067.31
2022-07-26T19:41:04.913Z,92073.06
2022-07-26T19:43:34.187Z,92072.94
2022-07-26T19:46:01.489Z,92082.00
2022-07-26T19:48:28.838Z,92073.63
2022-07-26T19:50:56.163Z,92077.66
2022-07-26T19:53:23.417Z,92086.50
2022-07-26T19:55:50.683Z,92083.91
2022-07-26T19:58:17.940Z,92086.28
2022-07-26T20:00:45.211Z,92083.41
2022-07-26T20:03:12.898Z,92080.22
2022-07-26T20:05:40.995Z,92085.34
2022-07-26T20:08:08.239Z,92083.19
2022-07-26T20:10:35.519Z,92081.22
2022-07-26T20:13:02.774Z,92079.56
2022-07-26T20:15:30.029Z,92087.78
2022-07-26T20:17:57.279Z,92084.31
2022-07-26T20:20:24.526Z,92084.19
2022-07-26T20:22:51.790Z,92092.88
2022-07-26T20:25:21.720Z,92096.38
2022-07-26T20:27:49.317Z,92103.25
2022-07-26T20:30:16.557Z,92097.16
2022-07-26T20:32:43.843Z,92096.22
2022-07-26T20:35:11.123Z,92100.72
2022-07-26T20:37:38.386Z,92099.59
2022-07-26T20:40:08.295Z,92093.56
2022-07-26T20:42:36.711Z,92102.81
2022-07-26T20:45:11.373Z,92097.34
2022-07-26T20:47:40.206Z,92087.53
2022-07-26T20:50:07.474Z,92098.88
2022-07-26T20:52:34.722Z,92086.28
2022-07-26T20:55:01.979Z,92096.13
2022-07-26T20:57:29.234Z,92095.06
2022-07-26T20:59:56.505Z,92094.91
2022-07-26T21:02:23.788Z,92095.28
2022-07-26T21:04:51.122Z,92094.72
2022-07-26T21:07:18.406Z,92093.97
2022-07-26T21:09:45.655Z,92092.97
2022-07-26T21:12:12.904Z,92088.41
2022-07-26T21:14:40.165Z,92092.97
2022-07-26T21:17:11.574Z,92093.09
2022-07-26T21:19:39.307Z,92095.59
2022-07-26T21:22:06.590Z,92096.16
2022-07-26T21:24:33.858Z,92090.31
2022-07-26T21:27:01.223Z,92100.06
2022-07-26T21:29:28.478Z,92096.47
2022-07-26T21:31:55.731Z,92093.06
2022-07-26T21:34:23.094Z,92091.34
2022-07-26T21:36:50.396Z,92087.69
2022-07-26T21:39:17.660Z,92081.81
2022-07-26T21:41:44.895Z,92081.44
2022-07-26T21:44:12.246Z,92083.75
2022-07-26T21:46:39.591Z,92084.06
2022-07-26T21:49:06.976Z,92082.84
2022-07-26T21:51:34.311Z,92080.56
2022-07-26T21:54:01.593Z,92083.31
2022-07-26T21:56:29.070Z,92085.31
2022-07-26T21:58:56.316Z,92081.91
2022-07-26T22:01:23.625Z,92090.13
2022-07-26T22:03:50.936Z,92087.03
2022-07-26T22:06:18.196Z,92085.91
2022-07-26T22:08:45.508Z,92086.72
2022-07-26T22:11:12.751Z,92090.59
2022-07-26T22:13:40.175Z,92087.19
2022-07-26T22:16:07.468Z,92094.66
2022-07-26T22:18:34.717Z,92091.00
2022-07-26T22:21:01.973Z,92094.94
2022-07-26T22:23:29.219Z,92101.06
2022-07-26T22:25:56.464Z,92092.84
2022-07-26T22:28:23.810Z,92090.50
2022-07-26T22:30:51.049Z,92090.44
2022-07-26T22:33:18.291Z,92096.44
2022-07-26T22:35:45.543Z,92096.03
2022-07-26T22:38:12.802Z,92089.34
2022-07-26T22:40:40.059Z,92087.94
2022-07-26T22:43:07.320Z,92092.19
2022-07-26T22:45:34.617Z,92089.94
2022-07-26T22:48:01.918Z,92086.59
2022-07-26T22:50:29.180Z,92084.56
2022-07-26T22:52:56.453Z,92082.81
2022-07-26T22:55:23.726Z,92081.94
2022-07-26T22:57:51.008Z,92081.50
2022-07-26T23:00:18.293Z,92085.59
2022-07-26T23:02:45.641Z,92085.13
2022-07-26T23:05:15.044Z,92088.84
2022-07-26T23:07:42.311Z,92091.41
2022-07-26T23:10:13.317Z,92092.59
2022-07-26T23:12:40.553Z,92090.44
2022-07-26T23:15:09.809Z,92093.91
2022-07-26T23:17:37.631Z,92095.97
2022-07-26T23:20:05.044Z,92103.66
2022-07-26T23:22:32.292Z,92100.31
2022-07-26T23:24:59.564Z,92101.19
2022-07-26T23:27:26.808Z,92083.56
2022-07-26T23:29:54.096Z,92087.59
2022-07-26T23:32:21.350Z,92090.84
2022-07-26T23:34:48.592Z,92089.22
2022-07-26T23:37:15.862Z,92098.06
2022-07-26T23:39:43.122Z,92098.69
2022-07-26T23:42:10.374Z,92092.28
2022-07-26T23:44:37.672Z,92091.28
2022-07-26T23:47:04.958Z,92093.34
2022-07-26T23:49:32.308Z,92092.22
2022-07-26T23:51:59.616Z,92096.16
2022-07-26T23:54:26.883Z,92093.38
2022-07-26T23:56:54.146Z,92098.03
2022-07-26T23:59:21.404Z,92089.09
